Time;durP1;ratioP1;P1;durP2;ratioP2;P2;SDS_P1;SDS_P2;PMS_P1;PMS_P2;Temp;Humidity;BMP_temperature;BMP_pressure;BME280_temperature;BME280_humidity;BME280_pressure;Samples;Min_cycle;Max_cycle;Signal;HPM_P1;HPM_P2
2021/06/11 08:49:08;;;;;;;16.95;7.50;;;26.10;62.30;;;;;;5020249;28;20581;-57
2021/06/11 08:51:35;;;;;;;11.40;7.43;;;25.10;64.00;;;;;;4967834;28;899693;-55
2021/06/11 08:54:01;;;;;;;10.20;6.78;;;24.80;66.90;;;;;;4983619;28;20038;-57
2021/06/11 08:56:27;;;;;;;13.40;6.68;;;24.60;69.20;;;;;;4984975;28;20034;-56
2021/06/11 08:58:54;;;;;;;14.15;8.90;;;24.90;68.90;;;;;;4991810;28;20045;-58
2021/06/11 09:01:21;;;;;;;11.40;6.57;;;24.70;64.70;;;;;;4991153;28;20058;-61
2021/06/11 09:03:57;;;;;;;18.73;8.43;;;25.10;68.20;;;;;;4960429;28;20069;-58
2021/06/11 09:06:24;;;;;;;9.80;6.40;;;25.20;66.20;;;;;;4973585;28;20100;-57
2021/06/11 09:08:57;;;;;;;13.20;7.20;;;24.80;65.70;;;;;;4972447;28;20059;-57
2021/06/11 09:11:42;;;;;;;13.02;6.60;;;24.80;70.10;;;;;;4977230;28;20132;-57
2021/06/11 09:14:12;;;;;;;10.05;6.32;;;24.60;69.70;;;;;;4976713;28;20430;-54
2021/06/11 09:16:48;;;;;;;15.27;7.60;;;24.50;70.00;;;;;;4976654;28;20050;-55
2021/06/11 09:24:33;;;;;;;9.10;7.23;;;24.10;69.90;;;;;;5314372;23;20474;-60
2021/06/11 09:27:01;;;;;;;11.70;5.78;;;24.40;70.30;;;;;;4973419;28;20396;-59
2021/06/11 09:29:39;;;;;;;10.35;6.07;;;24.30;74.10;;;;;;4951342;28;20059;-60
2021/06/11 09:32:12;;;;;;;13.73;7.53;;;23.80;73.50;;;;;;4937090;28;20099;-58
2021/06/11 09:34:38;;;;;;;8.38;6.18;;;23.50;73.20;;;;;;4910529;29;20040;-60
2021/06/11 09:37:16;;;;;;;8.80;6.60;;;23.40;77.00;;;;;;4915246;29;20515;-59
2021/06/11 09:39:47;;;;;;;9.93;6.65;;;23.10;75.50;;;;;;4914912;29;20047;-61
2021/06/11 09:42:16;;;;;;;21.50;7.15;;;23.40;76.10;;;;;;4917903;29;20047;-57
2021/06/11 09:44:51;;;;;;;11.18;5.95;;;23.50;76.80;;;;;;4932978;29;20035;-59
2021/06/11 09:47:38;;;;;;;9.48;5.78;;;23.70;75.80;;;;;;4946021;23;20155;-59
2021/06/11 09:52:57;;;;;;;7.33;5.37;;;23.90;72.20;;;;;;4956975;23;20047;-58
2021/06/11 09:55:46;;;;;;;14.02;6.63;;;23.80;71.00;;;;;;4923632;29;20047;-61
2021/06/11 09:58:17;;;;;;;8.30;5.28;;;23.70;71.20;;;;;;4918893;29;20127;-59
2021/06/11 10:00:57;;;;;;;7.97;5.20;;;23.90;75.30;;;;;;4933602;28;20058;-57
2021/06/11 10:03:28;;;;;;;7.55;5.60;;;23.70;74.00;;;;;;4941351;29;20040;-59
2021/06/11 10:05:58;;;;;;;8.68;4.50;;;23.50;75.90;;;;;;4930807;29;20661;-58
2021/06/11 10:08:26;;;;;;;11.57;5.25;;;23.30;77.00;;;;;;4917134;29;20055;-59
2021/06/11 10:10:57;;;;;;;8.32;5.18;;;22.90;79.50;;;;;;4949770;29;20049;-57
2021/06/11 10:13:26;;;;;;;10.45;7.28;;;23.20;79.80;;;;;;4950126;29;20050;-58
2021/06/11 10:15:55;;;;;;;12.18;7.90;;;23.20;81.90;;;;;;4962023;23;20057;-60
2021/06/11 10:18:27;;;;;;;11.57;5.65;;;23.30;83.80;;;;;;4985827;28;20050;-58
2021/06/11 10:21:01;;;;;;;9.70;6.00;;;23.50;76.90;;;;;;4988450;28;20383;-59
2021/06/11 10:23:29;;;;;;;10.00;5.88;;;23.50;81.90;;;;;;4964553;28;20047;-57
2021/06/11 10:26:02;;;;;;;10.45;6.00;;;23.40;80.90;;;;;;4967386;28;20098;-56
2021/06/11 10:31:28;;;;;;;10.00;6.13;;;23.40;80.60;;;;;;5720931;23;20531;-57
2021/06/11 10:34:00;;;;;;;6.25;4.95;;;23.50;79.40;;;;;;4902372;29;20062;-51
2021/06/11 10:36:25;;;;;;;16.17;5.40;;;23.60;81.60;;;;;;4911790;29;20048;-54
2021/06/11 10:38:53;;;;;;;9.50;5.90;;;23.70;79.80;;;;;;4912520;29;20052;-56
2021/06/11 10:41:19;;;;;;;8.85;5.47;;;23.50;82.60;;;;;;4914488;29;20127;-55
2021/06/11 10:43:45;;;;;;;8.43;5.45;;;23.30;80.20;;;;;;4923695;29;20080;-53
2021/06/11 10:46:25;;;;;;;6.68;4.97;;;23.40;81.50;;;;;;4930795;29;20039;-52
2021/06/11 10:48:56;;;;;;;11.93;5.70;;;23.60;78.90;;;;;;4911128;29;20040;-51
2021/06/11 10:51:44;;;;;;;12.52;6.82;;;23.60;76.30;;;;;;4920368;29;20490;-54
2021/06/11 10:54:16;;;;;;;10.48;5.53;;;23.40;78.70;;;;;;4895759;29;20048;-51
2021/06/11 10:56:57;;;;;;;12.20;5.90;;;23.30;79.10;;;;;;4922824;29;20098;-53
2021/06/11 10:59:44;;;;;;;9.70;6.50;;;23.10;83.20;;;;;;4912277;29;20677;-52
2021/06/11 11:02:10;;;;;;;9.48;6.63;;;22.90;83.20;;;;;;4913823;29;20036;-55
2021/06/11 11:04:41;;;;;;;8.73;5.70;;;23.00;83.70;;;;;;4923824;29;20094;-53
2021/06/11 11:07:26;;;;;;;13.00;8.00;;;23.30;83.30;;;;;;4931396;29;20082;-53
2021/06/11 11:10:08;;;;;;;7.45;5.75;;;23.40;82.30;;;;;;4926098;29;20048;-51
2021/06/11 11:13:06;;;;;;;9.45;4.45;;;23.60;84.50;;;;;;4911581;29;20079;-52
2021/06/11 11:15:38;;;;;;;9.48;5.40;;;24.00;85.90;;;;;;4911896;29;20051;-52
2021/06/11 11:18:05;;;;;;;7.40;4.20;;;24.20;81.40;;;;;;4912218;29;20048;-54
2021/06/11 11:20:34;;;;;;;11.00;6.63;;;24.30;77.50;;;;;;4917680;29;20047;-51
2021/06/11 11:23:01;;;;;;;14.43;8.60;;;24.10;80.50;;;;;;4923893;29;20051;-55
2021/06/11 11:25:28;;;;;;;10.52;6.65;;;23.90;81.90;;;;;;4925299;29;20044;-51
2021/06/11 11:27:55;;;;;;;9.40;6.20;;;23.80;78.60;;;;;;4911113;29;20650;-54
2021/06/11 11:30:26;;;;;;;7.53;5.93;;;23.90;81.70;;;;;;4921248;29;20409;-50
2021/06/11 11:32:56;;;;;;;11.15;7.80;;;23.80;81.60;;;;;;4923116;29;20055;-54
2021/06/11 11:35:31;;;;;;;8.75;5.78;;;23.70;78.50;;;;;;4917468;29;20048;-53
2021/06/11 11:38:02;;;;;;;8.82;5.75;;;23.70;80.30;;;;;;4912514;29;20108;-52
2021/06/11 11:40:28;;;;;;;13.20;6.25;;;23.60;81.00;;;;;;4911975;29;20091;-53
2021/06/11 11:42:57;;;;;;;10.18;6.55;;;23.40;83.90;;;;;;4911709;29;20048;-50
2021/06/11 11:45:27;;;;;;;10.90;5.50;;;23.30;84.00;;;;;;4913326;29;20116;-53
2021/06/11 11:47:58;;;;;;;10.43;7.05;;;23.20;86.80;;;;;;4931346;29;20051;-50
2021/06/11 11:50:27;;;;;;;9.00;5.95;;;23.50;88.40;;;;;;4928452;29;20043;-51
2021/06/11 11:52:53;;;;;;;14.70;6.30;;;23.60;84.00;;;;;;4944571;29;20043;-50
2021/06/11 11:55:18;;;;;;;11.10;7.05;;;23.60;82.90;;;;;;4942330;29;20090;-56
2021/06/11 11:57:45;;;;;;;7.20;4.88;;;23.60;81.20;;;;;;4931571;29;20534;-55
2021/06/11 12:00:15;;;;;;;6.07;3.90;;;23.50;80.90;;;;;;4930472;29;20055;-55
2021/06/11 12:02:42;;;;;;;9.18;4.85;;;23.60;83.10;;;;;;4929566;29;20043;-52
2021/06/11 12:05:08;;;;;;;8.45;5.45;;;23.60;82.70;;;;;;4930866;29;20538;-54
2021/06/11 12:07:34;;;;;;;13.75;6.07;;;23.60;84.30;;;;;;4930420;29;20403;-51
2021/06/11 12:10:00;;;;;;;9.52;6.15;;;23.80;83.20;;;;;;4930649;29;20040;-50
2021/06/11 12:12:26;;;;;;;15.75;5.38;;;23.80;82.20;;;;;;4930847;29;20043;-55
2021/06/11 12:14:55;;;;;;;7.85;5.20;;;24.10;80.60;;;;;;4933020;29;20059;-51
2021/06/11 12:17:21;;;;;;;6.97;4.68;;;24.20;74.70;;;;;;4932847;29;20432;-54
2021/06/11 12:19:47;;;;;;;5.70;3.83;;;24.40;75.80;;;;;;4934345;29;20263;-47
2021/06/11 12:22:14;;;;;;;7.13;4.55;;;24.60;80.20;;;;;;4933089;29;20036;-53
2021/06/11 12:24:40;;;;;;;7.32;4.75;;;24.70;78.80;;;;;;4933057;29;20043;-52
2021/06/11 12:27:06;;;;;;;14.63;6.00;;;24.60;79.00;;;;;;4933170;29;20043;-56
2021/06/11 12:29:32;;;;;;;7.28;4.95;;;24.50;75.80;;;;;;4934019;29;20702;-51
2021/06/11 12:31:57;;;;;;;7.00;3.75;;;24.30;79.10;;;;;;4932165;29;20047;-53
2021/06/11 12:34:23;;;;;;;9.10;5.50;;;24.20;80.30;;;;;;4937219;29;20032;-50
2021/06/11 12:36:49;;;;;;;8.85;5.25;;;24.10;80.00;;;;;;4940333;29;20126;-51
2021/06/11 12:39:15;;;;;;;8.65;4.97;;;24.10;83.10;;;;;;4940776;29;20094;-50
2021/06/11 12:41:41;;;;;;;11.55;4.88;;;24.20;79.30;;;;;;4933624;29;20043;-51
2021/06/11 12:44:15;;;;;;;6.68;4.50;;;24.20;80.10;;;;;;4933845;29;20051;-54
2021/06/11 12:46:41;;;;;;;5.70;4.28;;;24.20;79.30;;;;;;4933539;29;20044;-53
2021/06/11 12:49:07;;;;;;;9.88;4.07;;;24.20;83.30;;;;;;4933583;29;20058;-53
2021/06/11 12:51:33;;;;;;;11.63;4.68;;;24.30;80.80;;;;;;4932999;29;20047;-51
2021/06/11 12:53:59;;;;;;;6.88;4.45;;;24.40;77.40;;;;;;4934336;29;20050;-47
2021/06/11 12:56:24;;;;;;;7.03;4.60;;;24.30;79.30;;;;;;4933538;29;20052;-53
2021/06/11 12:58:50;;;;;;;14.95;5.55;;;24.20;78.20;;;;;;4932543;29;20063;-52
2021/06/11 13:01:16;;;;;;;8.25;4.88;;;24.20;84.00;;;;;;4931805;29;20040;-51
2021/06/11 13:03:41;;;;;;;9.73;4.30;;;24.50;82.60;;;;;;4933643;29;20118;-54
2021/06/11 13:06:07;;;;;;;6.35;4.22;;;24.60;76.30;;;;;;4933295;29;20051;-54
2021/06/11 13:08:33;;;;;;;8.57;4.03;;;24.70;79.20;;;;;;4933727;29;20043;-52
2021/06/11 13:11:00;;;;;;;5.18;4.07;;;24.70;76.80;;;;;;4933277;29;20039;-50
2021/06/11 13:13:25;;;;;;;9.40;5.03;;;24.90;78.00;;;;;;4933375;29;20530;-50
2021/06/11 13:15:51;;;;;;;6.85;5.22;;;25.00;75.90;;;;;;4930980;29;20040;-52
2021/06/11 13:18:17;;;;;;;9.95;3.85;;;24.70;74.10;;;;;;4933414;29;20518;-49
2021/06/11 13:20:42;;;;;;;6.53;4.15;;;24.70;76.60;;;;;;4932528;29;20044;-53
2021/06/11 13:23:09;;;;;;;5.43;3.92;;;24.60;75.10;;;;;;4932768;29;20039;-56
2021/06/11 13:25:35;;;;;;;8.93;3.50;;;24.80;76.70;;;;;;4932750;29;20071;-57
2021/06/11 13:28:02;;;;;;;5.40;3.65;;;24.80;73.30;;;;;;4932208;29;20098;-55
2021/06/11 13:30:28;;;;;;;5.70;4.18;;;25.00;73.40;;;;;;4931940;29;20058;-53
2021/06/11 13:32:54;;;;;;;4.93;4.10;;;24.90;77.80;;;;;;4938501;29;20067;-56
2021/06/11 13:35:20;;;;;;;5.30;4.80;;;24.60;73.60;;;;;;4935145;29;20074;-51
2021/06/11 13:37:45;;;;;;;4.30;3.35;;;24.70;73.30;;;;;;4932850;29;20496;-54
2021/06/11 13:40:12;;;;;;;5.18;3.72;;;24.60;73.40;;;;;;4932042;29;20043;-55
2021/06/11 13:42:41;;;;;;;13.55;3.92;;;24.60;76.20;;;;;;4932711;29;20048;-54
2021/06/11 13:45:08;;;;;;;7.18;4.05;;;24.50;73.50;;;;;;4947188;29;20035;-49
2021/06/11 13:47:33;;;;;;;7.78;3.72;;;24.30;76.90;;;;;;4946980;29;20070;-54
2021/06/11 13:49:59;;;;;;;6.93;4.60;;;24.40;77.10;;;;;;4951324;29;20495;-55
2021/06/11 13:52:25;;;;;;;6.47;4.68;;;24.20;73.80;;;;;;4951869;28;20222;-55
2021/06/11 13:54:51;;;;;;;7.93;5.18;;;24.30;76.00;;;;;;4951809;29;20069;-53
2021/06/11 13:57:17;;;;;;;8.13;4.05;;;24.20;80.60;;;;;;4934135;29;20047;-53
2021/06/11 13:59:42;;;;;;;5.47;4.53;;;24.00;79.60;;;;;;4931928;29;20054;-54
2021/06/11 14:02:08;;;;;;;5.82;3.75;;;24.10;80.60;;;;;;4931614;29;20044;-51
2021/06/11 14:04:33;;;;;;;7.80;4.20;;;24.10;80.30;;;;;;4932338;29;20127;-52
2021/06/11 14:06:59;;;;;;;8.40;4.97;;;24.20;78.70;;;;;;4931947;29;20649;-50
2021/06/11 14:09:25;;;;;;;9.63;5.78;;;24.20;77.50;;;;;;4932045;29;20040;-50
2021/06/11 14:11:50;;;;;;;10.75;6.40;;;24.10;79.90;;;;;;4931810;29;20051;-52
2021/06/11 14:14:16;;;;;;;8.60;5.63;;;24.00;82.60;;;;;;4931204;29;20042;-48
2021/06/11 14:16:41;;;;;;;12.25;8.18;;;24.00;82.40;;;;;;4930718;29;20036;-50
2021/06/11 14:19:07;;;;;;;11.75;6.63;;;24.00;85.10;;;;;;4932442;29;20451;-50
2021/06/11 14:21:32;;;;;;;8.80;5.93;;;23.90;86.40;;;;;;4932157;29;20050;-51
2021/06/11 14:23:58;;;;;;;8.40;6.53;;;23.80;83.50;;;;;;4931680;29;20047;-51
2021/06/11 14:26:24;;;;;;;8.95;4.70;;;23.80;84.30;;;;;;4931343;29;20166;-56
2021/06/11 14:28:49;;;;;;;8.55;5.53;;;23.70;84.80;;;;;;4932321;29;20039;-52
2021/06/11 14:31:17;;;;;;;11.68;6.15;;;23.60;82.70;;;;;;4930645;29;20086;-52
2021/06/11 14:33:42;;;;;;;10.10;5.47;;;23.50;85.10;;;;;;4943608;29;20058;-47
2021/06/11 14:36:08;;;;;;;9.10;5.82;;;23.50;84.00;;;;;;4950723;28;20035;-51
2021/06/11 14:38:34;;;;;;;7.00;4.95;;;23.40;84.50;;;;;;4951101;28;20043;-52
2021/06/11 14:41:00;;;;;;;10.90;7.95;;;23.50;85.20;;;;;;4950281;28;20043;-53
2021/06/11 14:43:26;;;;;;;9.27;7.45;;;23.30;85.80;;;;;;4950313;29;20138;-52
2021/06/11 14:45:51;;;;;;;12.60;7.65;;;23.20;87.30;;;;;;4936865;28;20415;-51
2021/06/11 14:48:19;;;;;;;10.88;7.30;;;23.30;86.60;;;;;;4929578;29;20122;-55
2021/06/11 14:50:45;;;;;;;13.02;7.43;;;23.30;85.90;;;;;;4931031;29;20043;-50
2021/06/11 14:53:15;;;;;;;10.13;6.68;;;23.30;86.30;;;;;;4931896;29;20122;-53
2021/06/11 14:55:48;;;;;;;11.00;6.65;;;23.30;86.20;;;;;;4931406;29;20047;-51
2021/06/11 14:58:14;;;;;;;10.43;7.00;;;23.20;86.00;;;;;;4931281;29;20071;-53
2021/06/11 15:00:40;;;;;;;12.40;8.48;;;23.30;88.20;;;;;;4930979;29;20067;-56
2021/06/11 15:03:08;;;;;;;11.15;8.38;;;23.30;86.00;;;;;;4931529;29;20044;-55
2021/06/11 15:05:34;;;;;;;12.80;8.15;;;23.30;87.10;;;;;;4931430;29;20043;-53
2021/06/11 15:07:59;;;;;;;13.30;8.98;;;23.30;87.60;;;;;;4931512;29;20113;-52
2021/06/11 15:10:25;;;;;;;17.60;9.10;;;23.20;88.50;;;;;;4931478;29;20145;-50
2021/06/11 15:12:50;;;;;;;16.17;8.45;;;23.00;89.10;;;;;;4931123;29;20130;-54
2021/06/11 15:15:17;;;;;;;11.73;6.90;;;23.10;88.20;;;;;;4930392;29;20043;-48
2021/06/11 15:17:42;;;;;;;13.70;9.05;;;23.10;89.20;;;;;;4931579;29;20523;-52
2021/06/11 15:20:08;;;;;;;12.75;7.95;;;23.00;87.60;;;;;;4931068;29;20094;-50
2021/06/11 15:22:34;;;;;;;15.55;6.88;;;23.00;87.80;;;;;;4930300;29;20040;-53
2021/06/11 15:25:00;;;;;;;11.70;7.38;;;23.00;89.10;;;;;;4932790;29;20102;-50
2021/06/11 15:27:26;;;;;;;18.98;15.77;;;23.00;89.80;;;;;;4931204;29;20670;-50
2021/06/11 15:29:51;;;;;;;37.17;28.20;;;22.90;89.50;;;;;;4931302;29;20544;-52
2021/06/11 15:32:17;;;;;;;28.75;24.88;;;22.80;90.20;;;;;;4930716;29;20047;-49
2021/06/11 15:34:43;;;;;;;17.23;10.82;;;22.70;89.30;;;;;;4950263;29;20054;-48
2021/06/11 15:37:08;;;;;;;13.57;7.80;;;22.80;88.60;;;;;;4950237;28;20126;-50
2021/06/11 15:39:34;;;;;;;11.82;7.50;;;22.80;89.00;;;;;;4950361;29;20178;-53
2021/06/11 15:42:00;;;;;;;11.55;8.07;;;22.80;88.30;;;;;;4950084;28;20662;-52
2021/06/11 15:44:25;;;;;;;13.27;7.88;;;22.70;87.70;;;;;;4950366;29;20059;-53
2021/06/11 15:46:53;;;;;;;8.65;6.65;;;22.70;89.20;;;;;;4949647;28;20043;-52
2021/06/11 15:49:19;;;;;;;9.88;6.32;;;22.70;89.60;;;;;;4951881;28;20122;-49
2021/06/11 15:51:45;;;;;;;10.77;8.45;;;22.60;88.60;;;;;;4953241;28;20039;-51
2021/06/11 15:54:11;;;;;;;14.02;8.15;;;22.60;88.30;;;;;;4941776;29;20043;-53
2021/06/11 15:56:37;;;;;;;19.65;6.63;;;22.60;90.00;;;;;;4934220;29;20072;-53
2021/06/11 15:59:03;;;;;;;8.80;7.00;;;22.60;90.20;;;;;;4933810;29;20057;-50
2021/06/11 16:01:32;;;;;;;13.45;7.20;;;22.60;89.80;;;;;;4932707;29;20504;-53
2021/06/11 16:03:57;;;;;;;8.95;5.90;;;22.70;89.90;;;;;;4934417;29;20046;-52
2021/06/11 16:06:23;;;;;;;10.75;7.85;;;22.60;89.40;;;;;;4934079;29;20132;-55
2021/06/11 16:08:48;;;;;;;11.73;7.35;;;22.60;88.30;;;;;;4934902;29;20087;-51
2021/06/11 16:11:14;;;;;;;10.63;7.63;;;22.60;90.30;;;;;;4933933;29;20055;-52
2021/06/11 16:13:39;;;;;;;8.45;6.80;;;22.60;89.10;;;;;;4933942;29;20040;-51
2021/06/11 16:16:05;;;;;;;8.82;6.50;;;22.60;89.80;;;;;;4933742;29;20047;-51
2021/06/11 16:18:31;;;;;;;7.18;6.47;;;22.60;90.00;;;;;;4934553;29;20500;-55
2021/06/11 16:20:56;;;;;;;7.18;6.47;;;22.70;88.70;;;;;;4933872;29;20142;-53
2021/06/11 16:23:22;;;;;;;7.32;6.57;;;22.60;89.70;;;;;;4933774;29;20091;-50
2021/06/11 16:25:47;;;;;;;10.55;8.32;;;22.60;88.90;;;;;;4934143;29;20050;-51
2021/06/11 16:28:13;;;;;;;10.05;7.60;;;22.60;88.20;;;;;;4933800;29;20047;-50
2021/06/11 16:30:39;;;;;;;12.00;8.57;;;22.60;88.60;;;;;;4932999;29;20035;-50
2021/06/11 16:33:05;;;;;;;13.45;7.50;;;22.40;87.10;;;;;;4940705;29;20580;-52
2021/06/11 16:35:30;;;;;;;8.68;6.90;;;22.40;88.60;;;;;;4934605;29;20050;-53
2021/06/11 16:37:56;;;;;;;7.82;6.82;;;22.50;88.70;;;;;;4933105;29;20075;-51
2021/06/11 16:40:21;;;;;;;10.77;7.35;;;22.40;89.40;;;;;;4932092;29;20052;-52
2021/06/11 16:42:47;;;;;;;8.48;7.20;;;22.40;89.80;;;;;;4936372;29;20042;-53
2021/06/11 16:45:13;;;;;;;12.15;7.60;;;22.40;90.00;;;;;;4947936;29;20042;-53
2021/06/11 16:47:40;;;;;;;12.05;7.47;;;22.30;89.50;;;;;;4933475;29;20043;-52
2021/06/11 16:50:09;;;;;;;9.63;6.85;;;22.20;90.10;;;;;;4933536;29;20135;-49
2021/06/11 16:52:36;;;;;;;7.88;5.70;;;22.20;90.20;;;;;;4933689;29;20044;-49
2021/06/11 16:55:02;;;;;;;7.80;6.10;;;22.10;90.20;;;;;;4933020;29;20062;-54
2021/06/11 16:57:31;;;;;;;8.15;5.53;;;22.10;90.40;;;;;;4933536;29;20486;-52
2021/06/11 16:59:57;;;;;;;7.38;5.50;;;22.10;90.80;;;;;;4933043;29;20048;-55
2021/06/11 17:02:23;;;;;;;6.70;6.05;;;22.10;90.30;;;;;;4932891;29;20040;-54
2021/06/11 17:04:48;;;;;;;9.48;5.55;;;22.10;90.70;;;;;;4932952;29;20135;-54
2021/06/11 17:07:14;;;;;;;8.63;5.95;;;22.00;90.90;;;;;;4933241;29;20054;-52
2021/06/11 17:09:40;;;;;;;7.07;5.85;;;22.00;90.10;;;;;;4932852;29;20035;-49
2021/06/11 17:12:06;;;;;;;10.85;6.28;;;22.00;89.70;;;;;;4932787;29;20047;-48
2021/06/11 17:14:31;;;;;;;6.13;5.53;;;22.00;91.00;;;;;;4931844;29;20130;-50
2021/06/11 17:16:57;;;;;;;6.85;5.30;;;21.90;90.00;;;;;;4933050;29;20048;-49
2021/06/11 17:19:23;;;;;;;10.38;5.72;;;21.90;90.80;;;;;;4933180;29;20052;-49
2021/06/11 17:21:48;;;;;;;7.63;5.00;;;22.00;90.60;;;;;;4932657;29;20098;-52
2021/06/11 17:24:22;;;;;;;4.78;4.05;;;22.00;90.60;;;;;;4932953;29;20538;-48
2021/06/11 17:26:48;;;;;;;13.60;5.10;;;21.90;90.10;;;;;;4933402;29;20075;-47
2021/06/11 17:29:34;;;;;;;10.15;5.45;;;21.90;90.70;;;;;;4932683;29;20044;-53
2021/06/11 17:32:05;;;;;;;6.97;4.65;;;21.90;90.40;;;;;;4932010;29;20047;-54
2021/06/11 17:34:32;;;;;;;7.30;4.40;;;21.70;90.90;;;;;;4951179;29;20043;-56
2021/06/11 17:37:07;;;;;;;9.95;4.82;;;21.70;90.70;;;;;;4951966;28;20510;-48
2021/06/11 17:39:33;;;;;;;9.07;4.45;;;21.60;91.00;;;;;;4951993;28;20047;-49
2021/06/11 17:41:59;;;;;;;5.20;4.32;;;21.60;91.40;;;;;;4952253;28;20090;-63
2021/06/11 17:44:25;;;;;;;10.10;4.50;;;21.60;91.40;;;;;;4948491;29;20050;-53
2021/06/11 17:46:56;;;;;;;12.18;5.43;;;21.70;91.60;;;;;;4932736;28;20044;-51
2021/06/11 17:49:36;;;;;;;8.32;4.38;;;21.70;90.30;;;;;;4931747;29;20131;-52
2021/06/11 17:52:04;;;;;;;8.48;6.00;;;21.70;91.20;;;;;;4931711;29;20599;-56
2021/06/11 17:54:31;;;;;;;12.50;5.30;;;21.70;90.30;;;;;;4931361;29;20130;-51
2021/06/11 17:56:58;;;;;;;14.23;9.73;;;21.60;91.60;;;;;;4932877;29;20047;-50
2021/06/11 17:59:28;;;;;;;13.63;7.88;;;21.70;91.60;;;;;;4946913;29;20285;-49
2021/06/11 18:02:01;;;;;;;10.02;6.57;;;21.70;91.60;;;;;;4931342;29;20051;-51
2021/06/11 18:04:29;;;;;;;10.00;4.78;;;21.60;91.80;;;;;;4932557;29;20072;-51
2021/06/11 18:07:01;;;;;;;6.55;4.40;;;21.60;91.70;;;;;;4932429;29;20085;-51
2021/06/11 18:09:26;;;;;;;12.57;4.43;;;21.60;91.80;;;;;;4931869;29;20062;-51
2021/06/11 18:11:52;;;;;;;;;;;21.50;92.00;;;;;;4931571;29;20399;-55
2021/06/11 18:14:19;;;;;;;5.78;3.85;;;21.50;92.00;;;;;;4931098;29;19929;-52
2021/06/11 18:16:45;;;;;;;7.95;4.93;;;21.40;92.30;;;;;;4931101;29;20075;-51
2021/06/11 18:19:11;;;;;;;;;;;21.40;92.20;;;;;;4932426;29;20083;-53
2021/06/11 18:21:43;;;;;;;6.07;4.30;;;21.40;91.30;;;;;;4930352;29;19931;-52
2021/06/11 18:24:17;;;;;;;8.75;4.22;;;21.30;92.10;;;;;;4931020;29;20148;-50
2021/06/11 18:26:58;;;;;;;10.35;4.70;;;21.30;92.20;;;;;;4927080;29;20122;-53
2021/06/11 18:29:43;;;;;;;13.45;6.15;;;21.20;92.10;;;;;;4931485;29;20126;-49
2021/06/11 18:32:25;;;;;;;7.05;4.55;;;21.20;92.00;;;;;;4910307;29;20424;-53
2021/06/11 18:34:51;;;;;;;36.22;6.70;;;21.10;92.40;;;;;;4930493;29;20038;-50
2021/06/11 18:37:17;;;;;;;15.32;7.80;;;21.00;92.00;;;;;;4930474;29;20112;-50
2021/06/11 18:39:43;;;;;;;;;;;21.00;92.20;;;;;;4932190;29;20903;-49
2021/06/11 18:42:08;;;;;;;16.92;4.70;;;20.90;91.90;;;;;;4931125;29;19919;-48
2021/06/11 18:44:36;;;;;;;8.05;4.30;;;20.90;92.90;;;;;;4930624;29;20451;-55
2021/06/11 18:47:02;;;;;;;5.18;3.78;;;20.80;93.00;;;;;;4934277;29;20521;-55
2021/06/11 18:49:27;;;;;;;;;;;20.80;93.10;;;;;;4944599;28;20052;-53
2021/06/11 18:51:54;;;;;;;9.82;4.28;;;20.70;93.00;;;;;;4930562;29;19922;-53
2021/06/11 18:54:25;;;;;;;16.73;5.50;;;20.70;93.20;;;;;;4929453;29;20082;-51
2021/06/11 18:56:54;;;;;;;9.80;4.78;;;20.60;93.30;;;;;;4930530;29;20107;-49
2021/06/11 18:59:29;;;;;;;15.23;4.22;;;20.70;93.70;;;;;;4929716;29;20388;-52
2021/06/11 19:01:57;;;;;;;8.25;4.18;;;20.60;94.70;;;;;;4928836;29;20123;-55
2021/06/11 19:04:25;;;;;;;17.35;6.20;;;20.60;93.90;;;;;;4930267;29;20708;-54
2021/06/11 19:07:07;;;;;;;8.48;4.88;;;20.60;94.30;;;;;;4930586;29;20040;-52
2021/06/11 19:09:38;;;;;;;18.40;7.20;;;20.50;94.70;;;;;;4929866;29;20035;-55
2021/06/11 19:12:13;;;;;;;23.10;5.88;;;20.40;95.10;;;;;;4930418;29;20044;-48
2021/06/11 19:14:42;;;;;;;17.20;4.80;;;20.40;94.70;;;;;;4930509;29;20432;-48
2021/06/11 19:17:10;;;;;;;15.48;4.53;;;20.20;94.50;;;;;;4930326;29;20043;-50
2021/06/11 19:19:51;;;;;;;7.28;5.45;;;20.20;95.10;;;;;;4930865;29;20079;-51
2021/06/11 19:22:21;;;;;;;16.63;5.38;;;20.20;94.90;;;;;;4930543;29;20047;-51
2021/06/11 19:25:14;;;;;;;8.75;4.97;;;20.10;95.40;;;;;;4935235;29;20496;-48
2021/06/11 19:27:44;;;;;;;5.47;4.40;;;20.10;95.40;;;;;;4932855;29;20055;-50
2021/06/11 19:30:14;;;;;;;7.72;4.72;;;20.10;95.50;;;;;;4927138;29;20522;-54
2021/06/11 19:32:57;;;;;;;8.35;4.95;;;20.00;95.40;;;;;;4937903;29;20050;-55
2021/06/11 19:35:38;;;;;;;13.40;5.30;;;20.00;95.50;;;;;;4935980;29;20031;-50
2021/06/11 19:38:22;;;;;;;10.57;4.60;;;19.80;95.60;;;;;;4934325;29;20046;-53
2021/06/11 19:40:50;;;;;;;15.15;5.53;;;19.90;95.40;;;;;;4934070;29;20122;-53
2021/06/11 19:43:38;;;;;;;8.35;5.57;;;19.70;95.60;;;;;;4934500;29;20051;-56
2021/06/11 19:46:25;;;;;;;16.88;4.63;;;19.70;96.00;;;;;;4933338;29;20063;-52
2021/06/11 19:49:03;;;;;;;20.80;5.18;;;19.70;96.00;;;;;;4940405;29;20119;-54
2021/06/11 19:51:31;;;;;;;9.40;4.68;;;19.60;96.10;;;;;;4943606;29;20035;-50
2021/06/11 19:53:56;;;;;;;10.45;4.80;;;19.60;95.90;;;;;;4952890;28;20712;-53
2021/06/11 19:56:24;;;;;;;;;;;19.40;95.90;;;;;;4943902;29;20100;-49
2021/06/11 19:58:56;;;;;;;20.30;10.57;;;19.40;96.20;;;;;;4934213;29;20247;-53
2021/06/11 20:01:31;;;;;;;15.68;7.43;;;19.50;96.50;;;;;;4932843;29;20044;-48
2021/06/11 20:04:00;;;;;;;24.25;15.43;;;19.30;96.70;;;;;;4934069;29;20036;-57
2021/06/11 20:06:35;;;;;;;13.25;9.13;;;19.10;96.70;;;;;;4933649;29;20695;-54
2021/06/11 20:09:06;;;;;;;22.58;6.30;;;19.00;97.20;;;;;;4934377;29;20078;-49
2021/06/11 20:11:33;;;;;;;11.20;5.13;;;19.00;97.60;;;;;;4933025;29;20047;-53
2021/06/11 20:13:59;;;;;;;27.55;5.75;;;18.90;97.40;;;;;;4933184;29;20054;-47
2021/06/11 20:16:30;;;;;;;15.45;4.90;;;19.00;97.30;;;;;;4933341;29;20071;-52
2021/06/11 20:19:03;;;;;;;9.05;5.03;;;19.00;97.20;;;;;;4934131;29;20164;-53
2021/06/11 20:21:30;;;;;;;14.80;4.88;;;18.90;96.90;;;;;;4932798;29;20500;-54
2021/06/11 20:23:56;;;;;;;16.48;9.75;;;18.90;96.90;;;;;;4933274;29;20225;-54
2021/06/11 20:26:23;;;;;;;14.93;6.82;;;18.90;97.10;;;;;;4932432;29;20046;-53
2021/06/11 20:28:49;;;;;;;12.55;5.60;;;18.60;97.40;;;;;;4932009;29;20062;-55
2021/06/11 20:31:15;;;;;;;;;;;18.60;97.70;;;;;;4932189;29;20099;-50
2021/06/11 20:33:41;;;;;;;7.45;5.10;;;18.60;97.90;;;;;;4933814;29;19923;-55
2021/06/11 20:36:07;;;;;;;;;;;18.60;97.80;;;;;;4932902;29;20046;-55
2021/06/11 20:38:34;;;;;;;15.80;5.50;;;18.60;98.00;;;;;;4933051;29;19926;-54
2021/06/11 20:41:00;;;;;;;9.98;4.82;;;18.40;98.10;;;;;;4932871;29;20044;-49
2021/06/11 20:43:26;;;;;;;9.52;5.57;;;18.40;98.40;;;;;;4932505;29;20043;-50
2021/06/11 20:45:52;;;;;;;9.02;5.18;;;18.40;98.50;;;;;;4930928;29;20119;-52
2021/06/11 20:48:17;;;;;;;;;;;18.30;98.40;;;;;;4932507;29;20333;-55
2021/06/11 20:50:44;;;;;;;8.25;5.20;;;18.10;98.60;;;;;;4932007;29;20290;-53
2021/06/11 20:53:11;;;;;;;8.60;5.50;;;18.00;98.80;;;;;;4938694;29;20036;-49
2021/06/11 20:58:12;;;;;;;17.50;5.95;;;18.00;99.30;;;;;;5101032;23;20050;-50
2021/06/11 21:00:38;;;;;;;;;;;18.00;99.20;;;;;;4948084;28;20039;-56
2021/06/11 21:03:04;;;;;;;7.95;4.38;;;18.20;99.20;;;;;;4950808;28;19980;-51
2021/06/11 21:05:31;;;;;;;8.13;3.50;;;18.20;99.10;;;;;;4950475;28;20134;-54
2021/06/11 21:07:56;;;;;;;14.25;3.90;;;18.30;98.80;;;;;;4936450;28;20115;-51
2021/06/11 21:10:22;;;;;;;;;;;18.20;98.80;;;;;;4932504;29;20456;-53
2021/06/11 21:12:51;;;;;;;9.40;4.10;;;18.20;99.00;;;;;;4932362;29;19929;-53
2021/06/11 21:15:18;;;;;;;5.22;3.78;;;18.10;98.70;;;;;;4932174;29;20440;-54
2021/06/11 21:17:44;;;;;;;8.82;3.70;;;18.20;98.90;;;;;;4932213;29;20050;-55
2021/06/11 21:20:13;;;;;;;8.23;3.95;;;18.20;98.80;;;;;;4932017;29;20051;-51
2021/06/11 21:22:38;;;;;;;8.50;3.05;;;18.10;98.80;;;;;;4929235;29;20043;-53
2021/06/11 21:25:06;;;;;;;;;;;18.10;99.00;;;;;;4931961;29;20035;-52
2021/06/11 21:27:33;;;;;;;6.78;3.90;;;18.10;99.20;;;;;;4929930;29;20613;-54
2021/06/11 21:29:58;;;;;;;8.90;3.22;;;18.10;99.10;;;;;;4931338;29;20067;-52
2021/06/11 21:32:24;;;;;;;;;;;18.10;99.10;;;;;;4931765;29;20078;-51
2021/06/11 21:35:00;;;;;;;7.95;4.38;;;18.10;99.10;;;;;;4931116;29;19958;-52
2021/06/11 21:37:26;;;;;;;7.15;4.47;;;18.00;99.00;;;;;;4929280;29;20067;-50
2021/06/11 21:39:51;;;;;;;;;;;17.90;99.30;;;;;;4932979;29;20039;-49
2021/06/11 21:42:20;;;;;;;5.40;3.80;;;17.80;99.40;;;;;;4930651;29;19982;-57
2021/06/11 21:44:45;;;;;;;5.10;4.05;;;17.80;99.40;;;;;;4931281;29;20469;-51
2021/06/11 21:47:11;;;;;;;;;;;17.80;99.80;;;;;;4931195;29;20126;-50
2021/06/11 21:49:36;;;;;;;8.18;4.10;;;17.80;99.80;;;;;;4932122;29;19929;-54
2021/06/11 21:52:02;;;;;;;;;;;17.80;99.90;;;;;;4934217;29;20803;-51
2021/06/11 21:54:30;;;;;;;7.90;4.45;;;17.80;99.90;;;;;;4932163;29;19919;-53